Abraham, Utah
Current Conditions -  °F | °C
As of 10:55 AM on Friday 31 Oct 2014 (Local Time) from KDTA Reporting Station
Clear Clear  
Wind Chill: 64°   Ceiling: Unl
Heat Index: 64°   Visibility: 10mi
Dew Point: 22°   Wind: 7mph
Humidity: 20%   Direction: 160°SSE
Pressure: 30.04"   Gusts: NA
Location:  39.4463°N, 112.85°W
Report Text: KDTA 311655Z AUTO 16006KT 10SM CLR 18/M06 A3004 RMK AO1 T01791057
Loading
Personal Weather Stations






























Interactive Weather Map New forecast layout! Learn more

10-Day Weather Forecast

Advertisements
Track Severe Weather on mobile